KNJK

El Centro Naf Airport

El Centro, California, USA
METAR KNJK 272356Z AUTO VRB04KT 10SM CLR 33/00 A2974 RMK AO2 SLP084 T03330000 10339 20289 56017 $
Observed Flight Rules
May-27 @ 23:56 UTC (an hour ago) Visual Flight Rules
Wind Visibility Clouds
Variable at 4 knots 10 miles
  • Clear skies
Temperatures Readings
Current 33°C / 91°F
Dewpoint 0°C / 32°F
Humidity 12%
Altimeter 29.74" Hg
Pressure 1008.4 hPa
Elevation -13
METAR KNJK 272356Z AUTO VRB04KT 10SM CLR 33/00 A2974 RMK AO2 SLP084 T03330000 10339 20289 56017 $
Observed Flight Rules
May-27 @ 23:56 UTC
(an hour ago)
VFR
Wind Visibility
Variable at 4 knots 10 miles
Clouds
  • Clear skies
Temperature Dewpoint
33°C / 91°F 0°C / 32°F
Humidity Altimeter Pressure
12% 29.74" Hg 1008.4 hPa